Time;durP1;ratioP1;P1;durP2;ratioP2;P2;SDS_P1;SDS_P2;PMS_P1;PMS_P2;Temp;Humidity;BMP_temperature;BMP_pressure;BME280_temperature;BME280_humidity;BME280_pressure;Samples;Min_cycle;Max_cycle;Signal;HPM_P1;HPM_P2
2022/07/06 00:01:55;;;;;;;0.47;0.45;;;13.70;99.90;;;;;;4998243;28;20048;-75
2022/07/06 00:04:21;;;;;;;1.15;0.60;;;13.70;99.90;;;;;;4997990;28;20034;-74
2022/07/06 00:06:47;;;;;;;0.50;0.45;;;13.80;99.90;;;;;;5013461;28;20042;-74
2022/07/06 00:09:12;;;;;;;4.32;0.70;;;13.80;99.90;;;;;;4997859;28;20537;-74
2022/07/06 00:11:38;;;;;;;1.92;0.80;;;13.80;99.90;;;;;;5013989;28;20493;-74
2022/07/06 00:14:05;;;;;;;0.50;0.30;;;13.70;99.90;;;;;;5014074;28;20046;-74
2022/07/06 00:16:31;;;;;;;0.52;0.45;;;13.80;99.90;;;;;;4997741;28;20109;-74
2022/07/06 00:18:57;;;;;;;0.50;0.30;;;13.90;99.90;;;;;;5013970;28;20038;-74
2022/07/06 00:21:22;;;;;;;1.30;0.50;;;13.90;99.90;;;;;;5013978;28;20045;-74
2022/07/06 00:23:48;;;;;;;4.82;0.43;;;13.90;99.90;;;;;;5013879;28;20068;-74
2022/07/06 00:26:14;;;;;;;1.77;0.50;;;14.00;99.90;;;;;;5014094;28;20037;-75
2022/07/06 00:28:40;;;;;;;1.23;0.40;;;14.00;99.90;;;;;;4997442;28;20121;-74
2022/07/06 00:31:05;;;;;;;0.30;0.30;;;13.90;99.90;;;;;;5013796;28;20049;-74
2022/07/06 00:33:31;;;;;;;0.30;0.30;;;14.00;99.90;;;;;;4997406;28;20044;-75
2022/07/06 00:35:57;;;;;;;3.50;0.70;;;14.20;99.90;;;;;;4997469;28;20046;-75
2022/07/06 00:38:23;;;;;;;0.43;0.28;;;14.40;99.90;;;;;;5013923;28;20493;-75
2022/07/06 00:40:49;;;;;;;0.35;0.35;;;13.90;99.90;;;;;;5013557;28;20042;-75
2022/07/06 00:43:15;;;;;;;4.95;0.52;;;13.90;99.90;;;;;;4997168;28;20045;-74
2022/07/06 00:45:40;;;;;;;1.15;0.43;;;13.90;99.90;;;;;;5013756;28;20045;-74
2022/07/06 00:48:06;;;;;;;1.65;0.63;;;13.90;99.90;;;;;;4997406;28;20056;-75
2022/07/06 00:50:33;;;;;;;2.05;0.30;;;14.00;99.90;;;;;;5013381;28;20046;-75
2022/07/06 00:53:04;;;;;;;1.75;0.70;;;13.80;99.90;;;;;;4997245;28;20046;-74
2022/07/06 00:55:34;;;;;;;0.30;0.30;;;14.50;99.90;;;;;;4996954;28;20046;-74
2022/07/06 00:58:04;;;;;;;0.77;0.45;;;13.80;99.90;;;;;;4996305;28;20090;-74
2022/07/06 01:00:31;;;;;;;1.33;0.50;;;13.90;99.90;;;;;;5013573;28;20481;-74
2022/07/06 01:02:57;;;;;;;0.70;0.45;;;13.80;99.90;;;;;;5013182;28;20033;-75
2022/07/06 01:05:23;;;;;;;2.33;0.63;;;13.80;99.90;;;;;;5013110;28;20503;-74
2022/07/06 01:07:51;;;;;;;0.93;0.57;;;13.80;99.90;;;;;;5013089;28;20088;-75
2022/07/06 01:10:18;;;;;;;2.95;0.50;;;13.80;99.90;;;;;;4996676;28;20133;-74
2022/07/06 01:12:46;;;;;;;1.52;0.40;;;13.80;99.90;;;;;;5013060;28;20049;-74
2022/07/06 01:15:16;;;;;;;1.00;0.57;;;13.80;99.90;;;;;;5012901;28;20034;-74
2022/07/06 01:17:43;;;;;;;0.40;0.35;;;13.80;99.90;;;;;;5013247;28;20068;-74
2022/07/06 01:20:10;;;;;;;0.30;0.30;;;13.80;99.90;;;;;;5012899;28;20068;-74
2022/07/06 01:22:35;;;;;;;0.47;0.40;;;13.70;99.90;;;;;;5012812;28;20042;-74
2022/07/06 01:25:01;;;;;;;0.43;0.40;;;13.70;99.90;;;;;;4996425;28;20046;-75
2022/07/06 01:27:27;;;;;;;3.28;0.70;;;13.70;99.90;;;;;;5013044;28;20050;-74
2022/07/06 01:29:53;;;;;;;1.30;0.43;;;13.70;99.90;;;;;;5012683;28;20056;-75
2022/07/06 01:32:19;;;;;;;1.58;0.73;;;14.50;99.90;;;;;;5012644;28;20045;-74
2022/07/06 01:34:44;;;;;;;1.23;0.50;;;14.20;99.90;;;;;;4996159;28;20041;-74
2022/07/06 01:37:10;;;;;;;1.35;0.32;;;13.80;99.90;;;;;;5012482;28;20184;-75
2022/07/06 01:39:36;;;;;;;1.63;0.60;;;13.80;99.90;;;;;;5012764;28;20046;-74
2022/07/06 01:42:01;;;;;;;0.40;0.40;;;13.70;99.90;;;;;;4996170;28;20127;-74
2022/07/06 01:44:27;;;;;;;0.35;0.35;;;13.70;99.90;;;;;;5012673;28;20125;-74
2022/07/06 01:46:53;;;;;;;1.10;0.57;;;13.70;99.90;;;;;;5012364;28;20045;-74
2022/07/06 01:49:18;;;;;;;0.40;0.40;;;13.70;99.90;;;;;;4996063;28;20044;-74
2022/07/06 01:51:44;;;;;;;0.57;0.40;;;13.70;99.90;;;;;;4996028;28;20053;-75
2022/07/06 01:54:09;;;;;;;0.75;0.47;;;13.70;99.90;;;;;;5012297;28;20067;-74
2022/07/06 01:56:35;;;;;;;0.75;0.50;;;13.80;99.90;;;;;;5012363;28;20069;-74
2022/07/06 01:59:01;;;;;;;0.40;0.30;;;13.70;99.90;;;;;;4996143;28;20038;-74
2022/07/06 02:01:27;;;;;;;0.50;0.50;;;13.70;99.90;;;;;;4996151;28;20041;-74
2022/07/06 02:03:52;;;;;;;0.57;0.40;;;13.70;99.90;;;;;;5012185;28;20052;-74
2022/07/06 02:06:18;;;;;;;0.95;0.40;;;13.70;99.90;;;;;;4996007;28;20088;-74
2022/07/06 02:08:43;;;;;;;1.55;0.60;;;13.70;99.90;;;;;;5012083;28;20110;-74
2022/07/06 02:11:10;;;;;;;1.67;0.73;;;13.70;99.90;;;;;;4995614;28;20062;-74
2022/07/06 02:13:36;;;;;;;1.38;0.50;;;13.70;99.90;;;;;;5011944;28;20053;-75
2022/07/06 02:16:03;;;;;;;0.68;0.60;;;13.60;99.90;;;;;;5011937;28;20413;-74
2022/07/06 02:18:29;;;;;;;0.77;0.50;;;13.60;99.90;;;;;;5011964;28;20038;-74
2022/07/06 02:20:55;;;;;;;2.38;0.47;;;13.60;99.90;;;;;;5011891;28;20078;-74
2022/07/06 02:23:20;;;;;;;0.57;0.40;;;13.60;99.90;;;;;;4995604;28;20505;-75
2022/07/06 02:25:46;;;;;;;0.55;0.47;;;13.60;99.90;;;;;;5012149;28;20054;-75
2022/07/06 02:28:12;;;;;;;1.25;0.50;;;13.60;99.90;;;;;;5012200;28;20061;-74
2022/07/06 02:30:38;;;;;;;0.82;0.52;;;13.60;99.90;;;;;;5011378;28;20042;-74
2022/07/06 02:33:03;;;;;;;2.00;0.60;;;13.60;99.90;;;;;;5011787;28;20042;-74
2022/07/06 02:35:29;;;;;;;0.52;0.40;;;13.60;99.90;;;;;;4995312;28;20489;-74
2022/07/06 02:37:55;;;;;;;0.43;0.40;;;13.60;99.90;;;;;;4995357;28;20132;-75
2022/07/06 02:40:21;;;;;;;0.50;0.40;;;13.60;99.90;;;;;;5011738;28;20038;-74
2022/07/06 02:42:46;;;;;;;0.95;0.38;;;13.60;99.90;;;;;;4995351;28;20048;-74
2022/07/06 02:45:12;;;;;;;0.47;0.47;;;13.70;99.90;;;;;;5012081;28;20088;-74
2022/07/06 02:47:38;;;;;;;1.25;0.40;;;13.60;99.90;;;;;;4995351;28;20045;-74
2022/07/06 02:50:05;;;;;;;0.52;0.50;;;13.90;99.90;;;;;;5011310;28;20042;-74
2022/07/06 02:52:30;;;;;;;3.90;0.60;;;13.60;99.90;;;;;;4995334;28;20041;-74
2022/07/06 02:54:56;;;;;;;0.90;0.63;;;13.60;99.90;;;;;;4995268;28;20038;-75
2022/07/06 02:57:22;;;;;;;1.13;0.70;;;13.60;99.90;;;;;;5011551;28;20042;-75
2022/07/06 02:59:50;;;;;;;0.30;0.30;;;15.00;99.90;;;;;;5011706;28;20441;-74
2022/07/06 03:02:17;;;;;;;0.70;0.52;;;13.60;99.90;;;;;;5011588;28;20409;-74
2022/07/06 03:04:43;;;;;;;0.32;0.30;;;13.50;99.90;;;;;;5011588;28;20472;-74
2022/07/06 03:07:08;;;;;;;1.13;0.60;;;13.50;99.90;;;;;;4995242;28;20405;-74
2022/07/06 03:09:34;;;;;;;1.15;0.60;;;13.50;99.90;;;;;;4995488;28;20045;-74
2022/07/06 03:12:00;;;;;;;1.67;0.47;;;13.50;99.90;;;;;;4994982;28;20575;-74
2022/07/06 03:14:26;;;;;;;0.80;0.40;;;13.50;99.90;;;;;;5011505;28;20050;-74
2022/07/06 03:16:53;;;;;;;0.30;0.30;;;14.60;99.90;;;;;;5011337;28;20485;-74
2022/07/06 03:19:18;;;;;;;0.43;0.40;;;13.60;99.90;;;;;;5011443;28;20068;-74
2022/07/06 03:21:44;;;;;;;0.80;0.40;;;13.50;99.90;;;;;;4995046;28;20041;-75
2022/07/06 03:24:10;;;;;;;2.80;0.70;;;14.20;99.90;;;;;;5011605;28;20477;-75
2022/07/06 03:26:36;;;;;;;0.90;0.68;;;13.80;99.90;;;;;;5011321;28;20045;-74
2022/07/06 03:29:01;;;;;;;0.93;0.40;;;13.60;99.90;;;;;;4995285;28;20042;-75
2022/07/06 03:31:27;;;;;;;0.47;0.40;;;13.60;99.90;;;;;;4994952;28;20092;-75
2022/07/06 03:33:53;;;;;;;0.38;0.38;;;13.60;99.90;;;;;;4994983;28;20528;-75
2022/07/06 03:36:18;;;;;;;0.82;0.40;;;13.60;99.90;;;;;;4994862;28;20380;-74
2022/07/06 03:38:44;;;;;;;1.08;0.50;;;13.70;99.90;;;;;;5011221;28;20069;-75
2022/07/06 03:41:09;;;;;;;0.45;0.32;;;14.40;99.90;;;;;;5011432;28;20041;-74
2022/07/06 03:43:35;;;;;;;0.45;0.40;;;13.60;99.90;;;;;;5014700;28;20038;-74
2022/07/06 03:46:01;;;;;;;1.08;0.50;;;13.60;99.90;;;;;;5014602;28;20386;-75
2022/07/06 03:48:26;;;;;;;1.23;0.65;;;14.20;99.90;;;;;;4998514;28;20088;-75
2022/07/06 03:50:52;;;;;;;0.80;0.30;;;13.50;99.90;;;;;;5014748;28;20100;-74
2022/07/06 03:53:18;;;;;;;0.40;0.40;;;13.50;99.90;;;;;;5014498;28;20038;-74
2022/07/06 03:56:27;;;;;;;0.73;0.47;;;13.50;99.90;;;;;;5014657;28;20468;-75
2022/07/06 03:58:30;;;;;;;2.00;0.47;;;13.50;99.90;;;;;;5014289;28;20046;-74
2022/07/06 04:00:55;;;;;;;2.15;0.75;;;13.50;99.90;;;;;;5014406;28;20042;-74
2022/07/06 04:03:21;;;;;;;0.93;0.43;;;13.40;99.90;;;;;;5014324;28;20383;-75
2022/07/06 04:05:46;;;;;;;1.40;0.60;;;13.40;99.90;;;;;;4997991;28;20056;-74
2022/07/06 04:08:12;;;;;;;0.50;0.40;;;13.40;99.90;;;;;;4998169;28;20511;-74
2022/07/06 04:10:38;;;;;;;0.30;0.30;;;13.30;99.90;;;;;;5014016;28;20053;-75
2022/07/06 04:13:03;;;;;;;0.40;0.40;;;13.40;99.90;;;;;;4997903;28;20104;-75
2022/07/06 04:15:29;;;;;;;0.50;0.50;;;13.30;99.90;;;;;;5014054;28;20119;-74
2022/07/06 04:17:55;;;;;;;4.60;0.57;;;13.40;99.90;;;;;;5014313;28;20094;-74
2022/07/06 04:20:22;;;;;;;0.30;0.30;;;13.40;99.90;;;;;;5013949;28;20052;-74
2022/07/06 04:22:49;;;;;;;0.22;0.22;;;13.50;99.90;;;;;;5013957;28;20128;-74
2022/07/06 04:25:15;;;;;;;0.45;0.40;;;13.40;99.90;;;;;;5013964;28;20459;-74
2022/07/06 04:27:41;;;;;;;0.90;0.43;;;13.40;99.90;;;;;;4997591;28;20045;-74
2022/07/06 04:30:07;;;;;;;0.77;0.50;;;13.40;99.90;;;;;;4997694;28;20581;-75
2022/07/06 04:32:34;;;;;;;0.90;0.50;;;13.50;99.90;;;;;;5013689;28;20053;-75
2022/07/06 04:35:00;;;;;;;1.45;0.65;;;13.50;99.90;;;;;;5013702;28;20038;-74
2022/07/06 04:37:26;;;;;;;0.95;0.40;;;13.60;99.90;;;;;;5013575;28;20128;-74
2022/07/06 04:39:52;;;;;;;0.68;0.63;;;13.60;99.90;;;;;;5013558;28;20155;-74
2022/07/06 04:42:17;;;;;;;3.13;0.40;;;13.60;99.90;;;;;;4997281;28;20046;-74
2022/07/06 04:44:43;;;;;;;1.00;0.50;;;13.60;99.90;;;;;;5013591;28;20080;-74
2022/07/06 04:47:09;;;;;;;0.40;0.40;;;13.70;99.90;;;;;;5013779;28;20042;-75
2022/07/06 04:49:35;;;;;;;1.75;0.45;;;13.70;99.90;;;;;;5013630;28;20065;-74
2022/07/06 04:52:00;;;;;;;1.48;0.70;;;13.80;99.90;;;;;;5013103;28;20128;-74
2022/07/06 04:54:26;;;;;;;0.90;0.65;;;13.80;99.90;;;;;;4996917;28;20045;-74
2022/07/06 04:56:52;;;;;;;3.00;0.50;;;13.90;99.90;;;;;;5013202;28;20129;-73
2022/07/06 04:59:18;;;;;;;2.47;0.55;;;14.00;99.90;;;;;;5013119;28;20042;-73
2022/07/06 05:01:43;;;;;;;1.65;0.52;;;14.00;99.90;;;;;;5013591;28;20042;-72
2022/07/06 05:04:09;;;;;;;0.50;0.30;;;14.10;99.90;;;;;;5013440;28;20053;-74
2022/07/06 05:06:35;;;;;;;0.30;0.30;;;14.30;99.90;;;;;;4997028;28;20076;-74
2022/07/06 05:09:01;;;;;;;0.63;0.40;;;14.40;99.90;;;;;;5013024;28;20046;-74
2022/07/06 05:11:27;;;;;;;0.40;0.40;;;14.40;99.90;;;;;;5013533;28;20411;-74
2022/07/06 05:13:54;;;;;;;1.00;0.30;;;14.40;99.90;;;;;;5013274;28;20132;-73
2022/07/06 05:16:20;;;;;;;1.48;0.43;;;14.40;99.90;;;;;;5012971;28;20050;-73
2022/07/06 05:18:46;;;;;;;2.90;0.40;;;14.50;99.90;;;;;;5013233;28;20053;-73
2022/07/06 05:21:12;;;;;;;0.43;0.30;;;14.50;99.90;;;;;;4996905;28;20375;-73
2022/07/06 05:23:38;;;;;;;0.63;0.63;;;14.90;99.90;;;;;;5012747;28;20034;-74
2022/07/06 05:26:04;;;;;;;0.50;0.30;;;14.50;99.90;;;;;;4996423;28;20053;-73
2022/07/06 05:28:30;;;;;;;2.50;0.40;;;14.50;99.90;;;;;;4996520;28;20444;-74
2022/07/06 05:30:55;;;;;;;0.30;0.30;;;14.50;99.90;;;;;;4996453;28;20058;-73
2022/07/06 05:33:21;;;;;;;1.35;0.40;;;14.50;99.90;;;;;;5012625;28;20045;-74
2022/07/06 05:35:47;;;;;;;1.75;0.63;;;14.40;99.90;;;;;;5012451;28;20042;-73
2022/07/06 05:38:12;;;;;;;1.77;0.30;;;14.50;99.90;;;;;;5012748;28;20469;-73
2022/07/06 05:40:38;;;;;;;1.35;0.50;;;14.50;99.90;;;;;;5012515;28;20034;-73
2022/07/06 05:43:04;;;;;;;0.10;0.10;;;14.40;99.90;;;;;;5012490;28;20042;-72
2022/07/06 05:45:29;;;;;;;1.45;0.40;;;14.50;99.90;;;;;;5012795;28;20176;-72
2022/07/06 05:50:39;;;;;;;0.47;0.40;;;14.60;99.90;;;;;;5012538;28;20049;-73
2022/07/06 05:53:06;;;;;;;0.43;0.28;;;14.60;99.90;;;;;;5012296;28;20043;-74
2022/07/06 05:55:32;;;;;;;0.88;0.40;;;14.70;99.90;;;;;;5012508;28;20433;-77
2022/07/06 05:57:58;;;;;;;0.30;0.30;;;14.70;99.90;;;;;;4996445;28;20049;-76
2022/07/06 06:00:25;;;;;;;0.98;0.32;;;14.80;99.90;;;;;;5012403;28;20041;-76
2022/07/06 06:02:51;;;;;;;0.10;0.10;;;14.70;99.90;;;;;;4996208;28;20042;-71
2022/07/06 06:05:18;;;;;;;0.95;0.40;;;14.70;99.90;;;;;;5011584;28;20034;-71
2022/07/06 06:07:46;;;;;;;1.10;0.22;;;14.70;99.90;;;;;;5012077;28;20077;-72
2022/07/06 06:10:13;;;;;;;0.73;0.30;;;14.70;99.90;;;;;;5013906;28;20081;-75
2022/07/06 06:12:40;;;;;;;0.38;0.22;;;14.80;99.90;;;;;;5015185;28;20060;-80
2022/07/06 06:15:07;;;;;;;0.45;0.20;;;14.70;99.90;;;;;;4999028;28;20055;-73
2022/07/06 06:17:33;;;;;;;0.90;0.50;;;14.70;99.90;;;;;;5015122;28;20053;-73
2022/07/06 06:19:59;;;;;;;0.47;0.43;;;14.60;99.90;;;;;;4999144;28;20080;-75
2022/07/06 06:22:25;;;;;;;0.43;0.40;;;14.60;99.90;;;;;;5015167;28;20076;-76
2022/07/06 06:24:52;;;;;;;2.92;0.30;;;15.70;99.90;;;;;;5015427;28;20076;-72
2022/07/06 06:27:18;;;;;;;2.08;0.60;;;15.40;99.90;;;;;;5015120;28;20140;-72
2022/07/06 06:29:44;;;;;;;1.05;0.50;;;14.60;99.90;;;;;;5014984;28;20474;-74
2022/07/06 06:32:13;;;;;;;3.40;0.50;;;14.60;99.90;;;;;;4998708;28;20148;-72
2022/07/06 06:34:40;;;;;;;2.33;0.47;;;15.10;99.90;;;;;;5015275;28;20053;-73
2022/07/06 06:37:06;;;;;;;0.25;0.20;;;14.90;99.90;;;;;;5014902;28;20076;-73
2022/07/06 06:39:32;;;;;;;0.10;0.10;;;15.00;99.90;;;;;;5014903;28;20121;-82
2022/07/06 06:41:58;;;;;;;3.60;0.30;;;15.10;99.90;;;;;;4998549;28;20076;-81
2022/07/06 06:44:24;;;;;;;0.82;0.10;;;15.10;99.90;;;;;;5015070;28;20552;-81
2022/07/06 06:46:51;;;;;;;0.80;0.30;;;15.20;99.90;;;;;;4998549;28;20136;-73
2022/07/06 06:49:18;;;;;;;0.35;0.20;;;15.20;99.90;;;;;;4998558;28;20042;-74
2022/07/06 06:51:44;;;;;;;0.28;0.28;;;15.30;99.90;;;;;;5014862;28;20125;-75
2022/07/06 06:54:09;;;;;;;1.25;0.40;;;15.60;99.90;;;;;;5014735;28;20045;-74
2022/07/06 06:56:35;;;;;;;0.45;0.30;;;15.30;99.90;;;;;;4998194;28;20053;-76
2022/07/06 06:59:01;;;;;;;3.05;0.70;;;15.30;99.90;;;;;;5014589;28;20056;-74
2022/07/06 07:01:27;;;;;;;1.42;0.52;;;15.30;99.90;;;;;;4998352;28;20041;-74
2022/07/06 07:03:55;;;;;;;0.38;0.35;;;15.30;99.90;;;;;;5015011;28;20037;-74
2022/07/06 07:06:21;;;;;;;0.73;0.45;;;15.30;99.90;;;;;;4998290;28;20034;-74
2022/07/06 07:08:47;;;;;;;0.40;0.40;;;15.30;99.90;;;;;;4998301;28;20049;-73
2022/07/06 07:11:13;;;;;;;0.30;0.30;;;15.30;99.90;;;;;;5014632;28;20065;-74
2022/07/06 07:13:39;;;;;;;0.60;0.28;;;15.30;99.90;;;;;;5014587;28;20404;-74
2022/07/06 07:16:05;;;;;;;3.28;0.90;;;15.30;99.90;;;;;;5016073;28;20504;-74
2022/07/06 07:18:31;;;;;;;0.40;0.30;;;15.60;99.90;;;;;;5018708;28;20041;-74
2022/07/06 07:20:57;;;;;;;0.45;0.30;;;15.40;99.90;;;;;;5001980;28;20185;-74
2022/07/06 07:23:23;;;;;;;3.05;0.50;;;15.50;99.90;;;;;;5018277;28;20037;-72
2022/07/06 07:25:49;;;;;;;0.43;0.28;;;15.50;99.90;;;;;;5018472;28;20056;-73
2022/07/06 07:28:14;;;;;;;0.65;0.30;;;15.60;99.90;;;;;;5018481;28;20042;-74
2022/07/06 07:30:40;;;;;;;0.25;0.25;;;15.60;99.90;;;;;;5001876;28;20088;-75
2022/07/06 07:33:06;;;;;;;0.20;0.20;;;15.70;99.90;;;;;;5018450;28;20045;-74
2022/07/06 07:35:32;;;;;;;1.83;0.68;;;15.70;99.90;;;;;;5018151;28;20148;-74
2022/07/06 07:37:57;;;;;;;0.20;0.20;;;15.80;99.90;;;;;;5018392;28;20053;-74
2022/07/06 07:40:23;;;;;;;0.32;0.32;;;16.10;99.90;;;;;;5001983;28;20142;-74
2022/07/06 07:42:49;;;;;;;1.27;0.38;;;16.40;99.90;;;;;;5001662;28;20037;-74
2022/07/06 07:45:15;;;;;;;1.02;0.30;;;16.70;99.90;;;;;;5017895;28;20481;-74
2022/07/06 07:47:41;;;;;;;0.20;0.20;;;16.90;99.90;;;;;;5001828;28;20049;-74
2022/07/06 07:50:07;;;;;;;0.20;0.20;;;17.00;99.90;;;;;;5017904;28;20047;-74
2022/07/06 07:52:33;;;;;;;0.45;0.38;;;17.20;99.90;;;;;;5001435;28;20064;-74
2022/07/06 07:54:59;;;;;;;0.35;0.35;;;17.40;99.90;;;;;;5017738;28;20132;-74
2022/07/06 07:57:25;;;;;;;0.20;0.20;;;17.60;99.90;;;;;;5017622;28;20046;-74
2022/07/06 07:59:50;;;;;;;0.50;0.30;;;17.70;99.90;;;;;;5017862;28;20388;-74
2022/07/06 08:02:16;;;;;;;1.75;0.35;;;17.90;99.90;;;;;;4985389;28;20041;-74
2022/07/06 08:04:42;;;;;;;1.08;0.43;;;17.90;99.90;;;;;;5017557;28;20041;-75
2022/07/06 08:07:08;;;;;;;0.30;0.30;;;17.90;99.90;;;;;;5017509;28;20044;-74
2022/07/06 08:09:34;;;;;;;2.75;0.30;;;18.10;99.90;;;;;;5001177;28;20489;-74
2022/07/06 08:11:59;;;;;;;1.15;0.40;;;18.30;99.90;;;;;;5000992;28;20061;-75
2022/07/06 08:14:25;;;;;;;0.15;0.15;;;18.50;99.90;;;;;;5017405;28;20049;-74
2022/07/06 08:16:51;;;;;;;1.45;0.40;;;18.70;99.90;;;;;;5017307;28;20049;-74
2022/07/06 08:19:17;;;;;;;1.55;0.40;;;18.80;99.90;;;;;;5000994;28;20409;-75
2022/07/06 08:21:43;;;;;;;0.30;0.20;;;19.00;99.90;;;;;;5017578;28;20110;-74
2022/07/06 08:24:09;;;;;;;1.38;0.28;;;19.10;99.90;;;;;;5001024;28;20459;-74
2022/07/06 08:26:36;;;;;;;1.75;0.52;;;19.00;99.90;;;;;;5000769;28;20055;-74
2022/07/06 08:29:02;;;;;;;0.22;0.20;;;18.80;99.90;;;;;;5016799;28;20045;-74
2022/07/06 08:31:27;;;;;;;0.22;0.20;;;18.60;99.90;;;;;;5017682;28;20048;-74
2022/07/06 08:33:54;;;;;;;1.48;0.40;;;18.50;99.90;;;;;;5017104;28;20041;-74
2022/07/06 08:36:20;;;;;;;0.22;0.22;;;18.40;99.90;;;;;;5000676;28;20048;-74
2022/07/06 08:38:47;;;;;;;0.88;0.30;;;18.20;99.90;;;;;;5000625;28;20060;-74
2022/07/06 08:41:15;;;;;;;1.33;0.40;;;18.00;99.90;;;;;;5001265;28;20393;-74
2022/07/06 08:43:41;;;;;;;0.57;0.30;;;17.90;99.90;;;;;;5000739;28;20500;-74
2022/07/06 08:46:08;;;;;;;1.00;0.30;;;17.60;99.90;;;;;;5016878;28;20065;-74
2022/07/06 08:48:38;;;;;;;0.30;0.30;;;17.40;99.90;;;;;;5017057;28;20388;-74
2022/07/06 08:51:05;;;;;;;3.03;0.60;;;17.40;99.90;;;;;;5000510;28;20037;-74
2022/07/06 08:53:31;;;;;;;0.20;0.20;;;17.30;99.90;;;;;;5017025;28;20041;-74
2022/07/06 08:55:57;;;;;;;1.65;0.32;;;17.40;99.90;;;;;;5000215;28;20100;-74
2022/07/06 08:58:29;;;;;;;0.20;0.20;;;17.50;99.90;;;;;;5016850;28;20105;-74
2022/07/06 09:00:55;;;;;;;0.90;0.28;;;17.60;99.90;;;;;;5016545;28;20041;-74
2022/07/06 09:03:22;;;;;;;0.80;0.22;;;17.80;99.90;;;;;;5016473;28;20045;-74
2022/07/06 09:05:49;;;;;;;0.57;0.40;;;17.80;99.90;;;;;;5016389;28;20048;-74
2022/07/06 09:08:15;;;;;;;0.25;0.25;;;17.90;99.90;;;;;;5016362;28;20067;-74
2022/07/06 09:10:41;;;;;;;0.40;0.40;;;18.00;99.90;;;;;;4999945;28;20057;-74
2022/07/06 09:13:08;;;;;;;0.20;0.20;;;18.00;99.90;;;;;;5016226;28;20056;-74
2022/07/06 09:15:40;;;;;;;0.35;0.25;;;18.10;99.90;;;;;;5000158;28;20132;-74
2022/07/06 09:18:06;;;;;;;0.45;0.40;;;18.20;99.90;;;;;;5016452;28;20532;-74
2022/07/06 09:20:33;;;;;;;0.22;0.22;;;18.40;99.90;;;;;;5016179;28;20037;-74
2022/07/06 09:23:00;;;;;;;0.45;0.30;;;18.70;99.90;;;;;;5016122;28;20382;-74
2022/07/06 09:25:26;;;;;;;0.28;0.28;;;19.00;99.90;;;;;;5016493;28;20085;-74
2022/07/06 09:27:54;;;;;;;1.25;0.30;;;18.90;99.90;;;;;;5016077;28;20076;-74
2022/07/06 09:30:22;;;;;;;0.22;0.22;;;18.80;99.90;;;;;;4999727;28;20041;-74
2022/07/06 09:32:51;;;;;;;0.30;0.28;;;18.50;99.90;;;;;;5016075;28;20044;-74
2022/07/06 09:35:28;;;;;;;0.95;0.30;;;18.30;99.90;;;;;;4999937;28;20067;-74
2022/07/06 09:38:13;;;;;;;0.52;0.20;;;18.30;99.90;;;;;;5015805;28;20070;-74
2022/07/06 09:40:42;;;;;;;0.30;0.20;;;18.40;99.90;;;;;;5015036;28;20042;-73
2022/07/06 09:43:10;;;;;;;0.30;0.30;;;18.60;99.90;;;;;;4999880;28;20698;-74
2022/07/06 09:45:38;;;;;;;0.25;0.25;;;18.70;99.90;;;;;;5015780;28;20120;-74
2022/07/06 09:48:15;;;;;;;0.20;0.20;;;18.80;99.90;;;;;;5015995;28;20056;-73
2022/07/06 09:50:45;;;;;;;0.20;0.20;;;18.50;99.90;;;;;;5015672;28;20037;-74
2022/07/06 09:53:12;;;;;;;0.52;0.30;;;18.40;99.90;;;;;;4999327;28;20064;-74
2022/07/06 09:55:42;;;;;;;2.58;0.30;;;18.30;99.90;;;;;;5015489;28;20095;-73
2022/07/06 09:58:08;;;;;;;0.10;0.10;;;18.30;99.90;;;;;;4999131;28;20079;-72
2022/07/06 10:00:34;;;;;;;1.38;0.50;;;18.40;99.90;;;;;;5015632;28;20069;-72
2022/07/06 10:03:01;;;;;;;0.80;0.30;;;18.40;99.90;;;;;;5015321;28;20037;-72
2022/07/06 10:05:29;;;;;;;0.30;0.28;;;18.60;99.90;;;;;;4999008;28;20038;-73
2022/07/06 10:08:00;;;;;;;0.10;0.10;;;18.60;99.90;;;;;;4998896;28;20042;-70
2022/07/06 10:10:29;;;;;;;0.55;0.50;;;18.60;99.90;;;;;;5015255;28;20061;-72
2022/07/06 10:12:56;;;;;;;2.28;0.38;;;18.50;99.90;;;;;;5015710;28;20041;-73
2022/07/06 10:15:26;;;;;;;0.60;0.40;;;18.70;99.90;;;;;;4998845;28;20037;-76
2022/07/06 10:17:53;;;;;;;1.25;0.20;;;18.80;99.90;;;;;;4982985;28;20535;-85
2022/07/06 10:20:20;;;;;;;0.50;0.40;;;18.80;99.90;;;;;;4999552;28;20362;-85
2022/07/06 10:22:47;;;;;;;0.22;0.22;;;19.00;99.90;;;;;;4999392;28;20128;-86
2022/07/06 10:25:19;;;;;;;0.45;0.30;;;19.00;99.90;;;;;;5015682;28;20042;-85
2022/07/06 10:27:48;;;;;;;2.30;0.40;;;19.10;99.90;;;;;;4999027;28;20148;-85
2022/07/06 10:30:15;;;;;;;1.35;0.30;;;19.10;99.90;;;;;;5015768;28;20045;-85
2022/07/06 10:32:44;;;;;;;0.68;0.40;;;19.30;99.90;;;;;;5016071;28;20578;-80
2022/07/06 10:35:10;;;;;;;0.20;0.20;;;19.20;99.90;;;;;;4999347;28;20045;-81
2022/07/06 10:37:36;;;;;;;0.88;0.50;;;19.30;99.90;;;;;;5016125;28;20137;-77
2022/07/06 10:42:51;;;;;;;0.28;0.28;;;19.30;99.90;;;;;;5014891;28;20046;-77
2022/07/06 10:45:26;;;;;;;;;;;19.40;99.90;;;;;;4999350;28;20044;-77
2022/07/06 10:48:10;;;;;;;0.20;0.20;;;19.40;99.90;;;;;;5015044;28;19925;-79
2022/07/06 10:50:40;;;;;;;0.63;0.30;;;19.30;99.90;;;;;;4999650;28;20049;-79
2022/07/06 10:53:13;;;;;;;0.30;0.30;;;19.40;99.90;;;;;;5002495;28;20053;-79
2022/07/06 10:55:43;;;;;;;0.30;0.30;;;19.50;99.90;;;;;;5018765;28;20049;-80
2022/07/06 10:58:10;;;;;;;0.32;0.30;;;19.60;99.90;;;;;;5002538;28;20180;-79
2022/07/06 11:00:51;;;;;;;0.85;0.35;;;19.50;99.90;;;;;;5002488;28;20056;-79
2022/07/06 11:03:34;;;;;;;0.60;0.30;;;19.40;99.90;;;;;;5002516;28;20516;-79
2022/07/06 11:06:12;;;;;;;0.80;0.43;;;19.60;99.90;;;;;;5019164;28;20041;-73
2022/07/06 11:08:50;;;;;;;0.93;0.38;;;19.90;99.90;;;;;;5018644;28;20045;-79
2022/07/06 11:11:17;;;;;;;0.22;0.22;;;20.00;99.90;;;;;;5018491;28;20064;-79
2022/07/06 11:13:44;;;;;;;0.32;0.30;;;20.20;99.90;;;;;;5018859;28;20500;-79
2022/07/06 11:16:09;;;;;;;0.43;0.30;;;20.10;99.90;;;;;;5018429;28;20077;-79
2022/07/06 11:18:46;;;;;;;0.43;0.20;;;20.10;99.90;;;;;;4985872;28;20076;-79
2022/07/06 11:21:20;;;;;;;0.10;0.10;;;20.10;99.90;;;;;;5018523;28;20069;-81
2022/07/06 11:23:48;;;;;;;0.60;0.30;;;20.10;99.90;;;;;;5019324;28;20540;-81
2022/07/06 11:26:15;;;;;;;0.30;0.30;;;20.20;99.90;;;;;;4986203;28;20107;-79
2022/07/06 11:28:40;;;;;;;0.93;0.20;;;20.10;99.90;;;;;;5018654;28;20049;-79
2022/07/06 11:31:06;;;;;;;0.35;0.30;;;20.10;99.90;;;;;;5018572;28;20040;-79
2022/07/06 11:33:33;;;;;;;0.20;0.20;;;19.90;99.90;;;;;;5018559;28;20045;-79
2022/07/06 11:36:22;;;;;;;0.35;0.30;;;19.90;99.90;;;;;;5021495;28;20188;-79
2022/07/06 11:38:49;;;;;;;0.45;0.30;;;20.10;99.90;;;;;;5001794;28;20038;-79
2022/07/06 11:41:16;;;;;;;1.02;0.30;;;20.30;99.90;;;;;;5018201;28;20068;-79
2022/07/06 11:43:45;;;;;;;0.30;0.30;;;20.50;99.90;;;;;;5001729;28;20041;-79
2022/07/06 11:46:27;;;;;;;0.47;0.40;;;20.70;99.90;;;;;;5018460;28;20076;-79
2022/07/06 11:49:04;;;;;;;0.20;0.20;;;20.70;99.90;;;;;;5001542;28;20084;-79
2022/07/06 11:51:39;;;;;;;1.33;0.30;;;20.90;99.90;;;;;;5001839;28;20130;-79
2022/07/06 11:54:19;;;;;;;0.28;0.28;;;21.00;99.90;;;;;;5001735;28;20396;-79
2022/07/06 11:57:06;;;;;;;0.20;0.20;;;;;;;;;;5017903;28;20044;-79
2022/07/06 11:59:33;;;;;;;1.00;0.40;;;;;;;;;;5017714;28;20073;-79
2022/07/06 12:02:04;;;;;;;0.30;0.28;;;;;;;;;;5000604;28;20041;-79
2022/07/06 12:04:30;;;;;;;;;;;;;;;;;;5018053;28;20041;-80
2022/07/06 12:06:59;;;;;;;2.78;0.20;;;;;;;;;;5002018;28;20296;-79
2022/07/06 12:09:26;;;;;;;0.73;0.38;;;;;;;;;;5018461;28;20497;-79
2022/07/06 12:11:52;;;;;;;0.52;0.50;;;;;;;;;;5001127;28;20501;-79
2022/07/06 12:14:21;;;;;;;0.85;0.35;;;21.10;99.90;;;;;;5001440;28;20045;-84
2022/07/06 12:16:48;;;;;;;0.55;0.30;;;21.00;99.90;;;;;;5018766;28;20045;-82
2022/07/06 12:19:14;;;;;;;0.40;0.20;;;21.10;99.90;;;;;;5019365;28;20041;-82
2022/07/06 12:21:48;;;;;;;0.20;0.20;;;20.90;99.90;;;;;;4985350;28;20073;-81
2022/07/06 12:24:33;;;;;;;1.15;0.22;;;;;;;;;;5001071;28;20120;-84
2022/07/06 12:27:10;;;;;;;1.52;0.40;;;;;;;;;;5017311;28;20053;-82
2022/07/06 12:29:36;;;;;;;3.85;0.32;;;;;;;;;;5001156;28;20045;-84
2022/07/06 12:32:02;;;;;;;0.73;0.30;;;;;;;;;;4985017;28;20061;-84
2022/07/06 12:34:31;;;;;;;0.80;0.20;;;;;;;;;;5017013;28;20045;-83
2022/07/06 12:36:59;;;;;;;0.75;0.30;;;;;;;;;;5000694;28;20042;-83
2022/07/06 12:39:25;;;;;;;0.40;0.40;;;;;;;;;;5000635;28;20452;-82
2022/07/06 12:41:52;;;;;;;0.28;0.28;;;;;;;;;;5016798;28;20108;-83
2022/07/06 12:44:20;;;;;;;0.90;0.30;;;;;;;;;;5001016;28;20124;-83
2022/07/06 12:46:47;;;;;;;0.30;0.30;;;;;;;;;;5017084;28;20511;-83
2022/07/06 12:49:18;;;;;;;0.55;0.15;;;;;;;;;;5017089;28;20099;-83
2022/07/06 12:51:59;;;;;;;0.20;0.20;;;;;;;;;;5016744;28;20123;-80
2022/07/06 12:54:30;;;;;;;0.50;0.40;;;;;;;;;;5017072;28;20111;-83
2022/07/06 12:56:56;;;;;;;;;;;;;;;;;;5017275;28;20041;-80
2022/07/06 12:59:23;;;;;;;2.17;0.43;;;;;;;;;;5016889;28;19924;-80
2022/07/06 13:01:50;;;;;;;0.95;0.30;;;;;;;;;;5016736;28;20489;-80